AirNav   Air Wisconsin pilot careers
 
 1722 users online  

29S Gardiner Airport
Gardiner, Montana, USA

GOING TO GARDINER?


FAA INFORMATION EFFECTIVE 21 JUNE 2018

Location

FAA Identifier: 29S
Lat/Long: 45-02-59.7680N / 110-44-47.7630W
45-02.996133N / 110-44.796050W
45.0499356 / -110.7466008
(estimated)
Elevation: 5286 ft. / 1611 m (estimated)
Variation: 16E (1985)
From city: 2 miles NW of GARDINER, MT
Time zone: UTC -6 (UTC -7 during Standard Time)
Zip code: 59030

Airport Operations

Airport use: Open to the public
Activation date: 09/1929
Control tower: no
ARTCC: SALT LAKE CITY CENTER
FSS: GREAT FALLS FLIGHT SERVICE STATION
NOTAMs facility: GTF (NOTAM-D service available)
Attendance: MON-FRI 0800-1700
Wind indicator: lighted
Segmented circle: yes
Lights: ACTVT LIRL RY 10/28 - CTAF.

Airport Communications

CTAF/UNICOM: 122.8

Airport Services

Parking: tiedowns
Bottled oxygen: NONE
Bulk oxygen: NONE

Runway Information

Runway 10/28

Dimensions: 3200 x 55 ft. / 975 x 17 m
Surface: asphalt/aggregate friction seal coat, in poor condition
LARGE CRACKS AND VEGETATION GROWTH THROUGHOUT RUNWAY SURFACE
Weight bearing capacity: 
Single wheel: 4.0
Runway edge lights: low intensity
Runway edge markings: NO CNTRLN RWY 10/28
RUNWAY 10  RUNWAY 28
Gradient: 1.0%1.0%
Traffic pattern: rightleft
Markings: basic, in poor conditionbasic, in poor condition
Obstructions: none422 ft. hill, 4000 ft. from runway, 10:1 slope to clear
PUBLIC ROAD 85 FEET FROM END OF RWY BOTH SIDES ON CENTERLINE

Airport Ownership and Management from official FAA records

Ownership: Publicly-owned
Owner: CITY & COUNTY
COUNTY BLDG
LIVINGSTON, MT 59047
Phone 406-222-6120
Manager: HUNTER MICHELBRINK
LIVINGSTON, MT 59047
Phone (406) 848-7200

Airport Operational Statistics

Aircraft based on the field: 4
Single engine airplanes: 3
Helicopters: 1
    
Aircraft operations: avg 78/month *
54% local general aviation
43% transient general aviation
3% air taxi
* for 12-month period ending 22 August 2017

Additional Remarks

RY 10 MTN 1 1/2 MILE IS 9:1 RATIO.
RY LIGHTS FOR EMERGENCY USE ONLY.

Instrument Procedures

There are no published instrument procedures at 29S.

Some nearby airports with instrument procedures:

KWYS - Yellowstone Airport (27 nm SW)
KEKS - Ennis - Big Sky Airport (40 nm W)
KLVM - Mission Field Airport (41 nm N)
KBZN - Bozeman Yellowstone International Airport (47 nm N)
6S0 - Big Timber Airport (56 nm NE)
 
Loc | Ops | Rwys | IFR | FBO | Links
Com | Nav | Svcs | Stats | Notes


 
Area around 29S (Gardiner Airport)
 
Road maps at: MapQuest Bing Google
 
Aerial photo
WARNING: Photo may not be current or correct
Aerial photo of 29S (Gardiner Airport)
Photo taken 27-May-2005

Do you have a better or more recent aerial photo of Gardiner Airport that you would like to share? If so, please send us your photo.

 
Sectional chart

 
Airport distance calculator
Flying to Gardiner Airport? Find the distance to fly.

From to 29S

Sunrise and sunset
Times for 18-Jul-2018
 Local
(UTC-6)
 Zulu
(UTC)
Morning civil twilight05:1911:19
Sunrise05:5411:54
Sunset21:0403:04
Evening civil twilight21:4003:40

Current date and time
Zulu (UTC)  18-Jul-2018 18:45:32
Local (UTC-6)  18-Jul-2018 12:45:32
 
METAR
KWYS 
28nm SW 
181835Z AUTO 23012KT 210V280 10SM CLR 24/04 A3028 RMK AO2
KP60 
33nm SE 
181756Z AUTO VRB03KT 18/09 A3041 RMK AO1 SLP227 T01830094 10189 20028 58005
KEKS 
40nm W 
SuperAWOS
181835Z AUTO 22008KT 200V270 10SM CLR 29/04 A3020 RMK AO2 PWINO
KLVM 
41nm N 
181753Z AUTO 24013KT 10SM CLR 29/05 A3010 RMK AO2 SLP143 T02940050 10300 20106 58008
KBZN 
47nm N 
181756Z VRB03KT 10SM CLR 28/09 A3011 RMK AO2 SLP152 T02780089 10278 20094 58016
TAF
KEKS 
40nm W 
181743Z 1818/1918 18005KT P6SM SKC FM182000 28009KT P6SM FEW060 FM190200 VRB05KT P6SM SKC
KLVM 
41nm N 
181739Z 1818/1918 26013G25KT P6SM FEW100 FM182000 26011KT P6SM VCTS SCT100CB FM190200 26012KT P6SM SCT100
KBZN 
47nm N 
181743Z 1818/1924 VRB05KT P6SM SKC FM182000 28009KT P6SM FEW060 FM190200 14005KT P6SM SKC
NOTAMs
Click for the latest NOTAMs
NOTAMs are issued by the DoD/FAA and will open in a separate window not controlled by AirNav.

 

 
 

Would you like to see your business listed on this page?

 If your business provides an interesting product or service to pilots, flight crews, aircraft, or users of the Gardiner Airport, you should consider listing it here.  To start the listing process, click on the button below
 
Add a business
 

Other Pages about Gardiner Airport

Update a link
 
Copyright © AirNav, LLC. All rights reserved. Privacy Policy  Contact